Golden Swift — VRPA6 — position and weather

sailwx.info

Track history (hours):
 
Tides and Currents Weather Stations Pressure Air Temp Water Temp Dewpoint Dewpoint Depression Visibility Wind Speed Wind Dir Waves Ship Positions

Golden Swift

Last reported at 2018-May-21 00:34 UTC. Time now 2018-Jul-23 11:49 UTC.
Position N 01°22' E 104°37'.
Warning: this ship's position is months out of date.

Length 300 m; draft 8 m.

Type: Cargo ship. MMSI: 477713200.

Date/timePositionNaut miles runAvg speedWind from/ knotsBaromVisibWave heightAir tempDewpointWater temp
2018-May-21 00:34N 01°22' E 104°37'213.0
2018-May-21 00:25N 01°23' E 104°35'612.8
2018-May-20 23:58N 01°23' E 104°29'715.4
2018-May-20 23:29N 01°19' E 104°23'815.7
2018-May-20 23:00N 01°17' E 104°15'714.6
2018-May-20 22:30N 01°16' E 104°08'4 8.0
2018-May-20 22:00N 01°18' E 104°05'0 0.1
2018-May-20 20:15N 01°18' E 104°05'0 0.1
2018-May-20 19:48N 01°18' E 104°05'0 0.1
2018-May-20 19:27N 01°18' E 104°05'0 0.2
2018-May-20 18:51N 01°18' E 104°05'0 0.1
2018-May-20 17:21N 01°18' E 104°05'0 0.0
2018-May-20 15:30N 01°18' E 104°05'0 0.1
2018-May-20 14:57N 01°18' E 104°05'0 0.0
2018-May-20 14:27N 01°18' E 104°05'0 0.1
2018-May-20 13:51N 01°18' E 104°05'0 0.2
2018-May-20 13:30N 01°18' E 104°05'0 0.0
2018-May-20 12:50N 01°18' E 104°05'0 0.1
2018-May-20 12:30N 01°18' E 104°05'0 0.1
2018-May-20 12:00N 01°18' E 104°05'0 0.0
2018-May-20 11:30N 01°18' E 104°05'0 0.0
2018-May-20 10:53N 01°18' E 104°05'0 0.0
2018-May-20 10:21N 01°18' E 104°05'0 0.0
2018-May-20 09:48N 01°18' E 104°05'0 0.1
2018-May-20 09:23N 01°18' E 104°05'0 0.1
2018-May-20 08:41N 01°18' E 104°05'0 0.0
2018-May-20 08:30N 01°18' E 104°05'0 0.0
2018-May-20 07:51N 01°18' E 104°05'0 0.0
2018-May-20 07:11N 01°18' E 104°05'0 0.3
2018-May-20 06:59N 01°18' E 104°05'0 0.1
2018-May-20 06:27N 01°18' E 104°05'0 0.1
2018-May-20 05:24N 01°18' E 104°05'0 0.4
2018-May-20 05:00N 01°18' E 104°05'0 0.3
2018-May-20 04:30N 01°18' E 104°05'0 0.1
2018-May-20 03:57N 01°18' E 104°05'0 0.0
2018-May-20 03:26N 01°18' E 104°05'0 0.0
2018-May-20 03:00N 01°18' E 104°05'0 0.0
2018-May-20 02:26N 01°18' E 104°05'0 0.0
2018-May-20 02:00N 01°18' E 104°05'0 0.0
2018-May-20 01:30N 01°18' E 104°05'0 0.2
2018-May-20 01:00N 01°18' E 104°05'1 2.3
2018-May-20 00:30N 01°18' E 104°06'2 3.9
2018-May-20 00:00N 01°17' E 104°08'3 6.8
2018-May-19 23:31N 01°18' E 104°11'4 7.4
2018-May-19 23:00N 01°18' E 104°15'5 9.9
2018-May-19 22:30N 01°19' E 104°20'5 9.8
2018-May-19 22:00N 01°22' E 104°23'510.1
2018-May-19 21:30N 01°26' E 104°27'510.1
2018-May-19 20:58N 01°30' E 104°31'610.3
2018-May-19 20:25N 01°34' E 104°35'  
Track history (hours):
 
Tides and Currents Weather Stations Pressure Air Temp Water Temp Dewpoint Dewpoint Depression Visibility Wind Speed Wind Dir Waves Ship Positions

Golden Swift

Last reported at 2018-May-21 00:34 UTC. Time now 2018-Jul-23 11:49 UTC.
Position N 01°22' E 104°37'.
Warning: this ship's position is months out of date.

Length 300 m; draft 8 m.

Type: Cargo ship. MMSI: 477713200.

Date/timePositionNaut miles runAvg speedWind from/ knotsBaromVisibWave heightAir tempDewpointWater temp
2018-May-21 00:34N 01°22' E 104°37'213.0
2018-May-21 00:25N 01°23' E 104°35'612.8
2018-May-20 23:58N 01°23' E 104°29'715.4
2018-May-20 23:29N 01°19' E 104°23'815.7
2018-May-20 23:00N 01°17' E 104°15'714.6
2018-May-20 22:30N 01°16' E 104°08'4 8.0
2018-May-20 22:00N 01°18' E 104°05'0 0.1
2018-May-20 20:15N 01°18' E 104°05'0 0.1
2018-May-20 19:48N 01°18' E 104°05'0 0.1
2018-May-20 19:27N 01°18' E 104°05'0 0.2
2018-May-20 18:51N 01°18' E 104°05'0 0.1
2018-May-20 17:21N 01°18' E 104°05'0 0.0
2018-May-20 15:30N 01°18' E 104°05'0 0.1
2018-May-20 14:57N 01°18' E 104°05'0 0.0
2018-May-20 14:27N 01°18' E 104°05'0 0.1
2018-May-20 13:51N 01°18' E 104°05'0 0.2
2018-May-20 13:30N 01°18' E 104°05'0 0.0
2018-May-20 12:50N 01°18' E 104°05'0 0.1
2018-May-20 12:30N 01°18' E 104°05'0 0.1
2018-May-20 12:00N 01°18' E 104°05'0 0.0
2018-May-20 11:30N 01°18' E 104°05'0 0.0
2018-May-20 10:53N 01°18' E 104°05'0 0.0
2018-May-20 10:21N 01°18' E 104°05'0 0.0
2018-May-20 09:48N 01°18' E 104°05'0 0.1
2018-May-20 09:23N 01°18' E 104°05'0 0.1
2018-May-20 08:41N 01°18' E 104°05'0 0.0
2018-May-20 08:30N 01°18' E 104°05'0 0.0
2018-May-20 07:51N 01°18' E 104°05'0 0.0
2018-May-20 07:11N 01°18' E 104°05'0 0.3
2018-May-20 06:59N 01°18' E 104°05'0 0.1
2018-May-20 06:27N 01°18' E 104°05'0 0.1
2018-May-20 05:24N 01°18' E 104°05'0 0.4
2018-May-20 05:00N 01°18' E 104°05'0 0.3
2018-May-20 04:30N 01°18' E 104°05'0 0.1
2018-May-20 03:57N 01°18' E 104°05'0 0.0
2018-May-20 03:26N 01°18' E 104°05'0 0.0
2018-May-20 03:00N 01°18' E 104°05'0 0.0
2018-May-20 02:26N 01°18' E 104°05'0 0.0
2018-May-20 02:00N 01°18' E 104°05'0 0.0
2018-May-20 01:30N 01°18' E 104°05'0 0.2
2018-May-20 01:00N 01°18' E 104°05'1 2.3
2018-May-20 00:30N 01°18' E 104°06'2 3.9
2018-May-20 00:00N 01°17' E 104°08'3 6.8
2018-May-19 23:31N 01°18' E 104°11'4 7.4
2018-May-19 23:00N 01°18' E 104°15'5 9.9
2018-May-19 22:30N 01°19' E 104°20'5 9.8
2018-May-19 22:00N 01°22' E 104°23'510.1
2018-May-19 21:30N 01°26' E 104°27'510.1
2018-May-19 20:58N 01°30' E 104°31'610.3
2018-May-19 20:25N 01°34' E 104°35'  

Dump ship's entire track history